createdAt,value
2017-06-22T00:03:58.826Z,0
2017-06-22T00:08:55.561Z,0
2017-06-22T00:13:52.065Z,0
2017-06-22T00:18:47.770Z,0
2017-06-22T00:23:43.960Z,0
2017-06-22T00:28:39.720Z,0
2017-06-22T00:33:36.627Z,0
2017-06-22T00:38:33.164Z,0
2017-06-22T00:43:28.736Z,0
2017-06-22T00:48:24.550Z,0
2017-06-22T00:53:20.450Z,0
2017-06-22T00:58:17.360Z,0
2017-06-22T01:03:13.500Z,0
2017-06-22T01:08:10.067Z,0
2017-06-22T01:13:05.526Z,0
2017-06-22T01:18:02.104Z,0
2017-06-22T01:22:58.028Z,0
2017-06-22T01:27:54.366Z,0
2017-06-22T01:32:50.217Z,0
2017-06-22T01:37:46.508Z,0
2017-06-22T01:42:42.448Z,0
2017-06-22T01:47:39.432Z,0
2017-06-22T01:52:36.406Z,0
2017-06-22T01:57:32.096Z,0
2017-06-22T02:02:27.815Z,0
2017-06-22T02:07:23.548Z,0
2017-06-22T02:12:20.436Z,0
2017-06-22T02:17:16.232Z,0
2017-06-22T02:22:11.883Z,0
2017-06-22T02:27:08.319Z,4
2017-06-22T02:32:04.108Z,4
2017-06-22T02:36:59.901Z,4
2017-06-22T02:41:55.874Z,12
2017-06-22T02:46:52.204Z,20
2017-06-22T02:51:48.146Z,32
2017-06-22T02:56:45.167Z,48
2017-06-22T03:01:41.809Z,72
2017-06-22T03:06:38.525Z,108
2017-06-22T03:11:34.099Z,148
2017-06-22T03:16:30.099Z,192
2017-06-22T03:21:26.016Z,264
2017-06-22T03:26:23.009Z,384
2017-06-22T03:31:18.465Z,532
2017-06-22T03:36:14.717Z,692
2017-06-22T03:41:11.392Z,868
2017-06-22T03:46:08.456Z,1008
2017-06-22T03:51:04.821Z,1168
2017-06-22T03:56:01.720Z,1360
2017-06-22T04:00:57.472Z,1676
2017-06-22T04:05:53.536Z,1896
2017-06-22T04:10:51.887Z,1896
2017-06-22T04:15:48.353Z,1924
2017-06-22T04:20:44.156Z,1948
2017-06-22T04:25:39.962Z,2036
2017-06-22T04:30:36.050Z,2192
2017-06-22T04:35:31.870Z,3408
2017-06-22T04:40:28.071Z,4808
2017-06-22T04:45:25.467Z,4788
2017-06-22T04:50:21.496Z,5608
2017-06-22T04:55:17.970Z,7072
2017-06-22T05:00:14.625Z,9116
2017-06-22T05:05:12.135Z,7184
2017-06-22T05:10:07.903Z,3652
2017-06-22T05:15:03.538Z,3824
2017-06-22T05:19:59.311Z,5268
2017-06-22T05:24:55.133Z,5628
2017-06-22T05:29:50.970Z,9952
2017-06-22T05:34:47.515Z,12560
2017-06-22T05:39:45.167Z,13320
2017-06-22T05:44:41.471Z,11688
2017-06-22T05:49:39.002Z,8164
2017-06-22T05:54:36.142Z,7684
2017-06-22T05:59:32.099Z,6284
2017-06-22T06:04:29.828Z,6120
2017-06-22T06:09:25.050Z,6060
2017-06-22T06:14:20.926Z,6104
2017-06-22T06:19:17.186Z,5944
2017-06-22T06:24:13.147Z,5868
2017-06-22T06:29:08.989Z,6056
2017-06-22T06:34:05.967Z,6172
2017-06-22T06:39:01.515Z,6368
2017-06-22T06:43:57.779Z,6540
2017-06-22T06:48:53.891Z,6924
2017-06-22T06:53:50.863Z,7320
2017-06-22T06:58:47.117Z,7692
2017-06-22T07:03:43.415Z,7432
2017-06-22T07:08:40.564Z,7768
2017-06-22T07:13:36.294Z,8108
2017-06-22T07:18:32.395Z,8476
2017-06-22T07:23:29.934Z,9216
2017-06-22T07:28:26.870Z,9852
2017-06-22T07:33:23.028Z,10928
2017-06-22T07:38:19.435Z,12880
2017-06-22T07:43:15.849Z,14100
2017-06-22T07:48:12.466Z,14504
2017-06-22T07:53:09.502Z,28032
2017-06-22T07:58:08.771Z,13456
2017-06-22T08:03:05.312Z,35040
2017-06-22T08:08:02.566Z,30976
2017-06-22T08:13:00.020Z,16736
2017-06-22T08:17:55.650Z,10692
2017-06-22T08:22:52.032Z,44704
2017-06-22T08:27:50.180Z,36224
2017-06-22T08:32:48.665Z,50432
2017-06-22T08:37:45.836Z,41312
2017-06-22T08:42:42.815Z,54016
2017-06-22T08:47:39.551Z,64832
2017-06-22T08:52:37.404Z,57568
2017-06-22T08:57:33.638Z,57312
2017-06-22T09:02:30.500Z,63424
2017-06-22T09:07:26.612Z,70592
2017-06-22T09:12:22.837Z,69280
2017-06-22T09:17:19.410Z,68128
2017-06-22T09:22:15.715Z,70688
2017-06-22T09:27:12.349Z,73792
2017-06-22T09:32:08.669Z,52704
2017-06-22T09:37:04.661Z,75904
2017-06-22T09:42:00.891Z,76736
2017-06-22T09:46:56.972Z,75904
2017-06-22T09:51:53.291Z,77952
2017-06-22T09:56:49.496Z,73952
2017-06-22T10:01:47.940Z,56256
2017-06-22T10:06:43.907Z,28832
2017-06-22T10:11:38.825Z,24224
2017-06-22T10:16:36.297Z,54944
2017-06-22T10:21:32.878Z,59424
2017-06-22T10:26:29.184Z,58112
2017-06-22T10:31:25.846Z,47104
2017-06-22T10:36:22.598Z,57088
2017-06-22T10:41:19.866Z,49536
2017-06-22T10:46:15.643Z,50592
2017-06-22T10:51:11.765Z,28512
2017-06-22T10:56:07.358Z,51392
2017-06-22T11:01:03.835Z,46432
2017-06-22T11:06:00.495Z,50432
2017-06-22T11:10:57.149Z,50112
2017-06-22T11:15:54.053Z,51648
2017-06-22T11:20:50.222Z,55872
2017-06-22T11:25:46.348Z,43584
2017-06-22T11:30:41.944Z,41152
2017-06-22T11:35:38.643Z,49536
2017-06-22T11:40:35.274Z,58688
2017-06-22T11:45:32.046Z,64480
2017-06-22T11:50:29.382Z,64000
2017-06-22T11:55:26.111Z,67744
2017-06-22T12:00:23.077Z,65280
2017-06-22T12:05:20.751Z,69376
2017-06-22T12:10:17.084Z,79520
2017-06-22T12:15:13.448Z,55296
2017-06-22T12:20:09.103Z,41312
2017-06-22T12:25:05.127Z,39104
2017-06-22T12:30:01.106Z,59552
2017-06-22T12:34:57.479Z,79840
2017-06-22T12:39:53.694Z,58016
2017-06-22T12:44:48.638Z,50464
2017-06-22T12:49:45.895Z,40000
2017-06-22T12:54:41.909Z,56448
2017-06-22T12:59:37.925Z,85536
2017-06-22T13:04:34.047Z,75968
2017-06-22T13:09:29.461Z,66560
2017-06-22T13:14:25.611Z,60768
2017-06-22T13:19:21.742Z,52128
2017-06-22T13:24:18.860Z,45600
2017-06-22T13:29:15.366Z,55488
2017-06-22T13:34:10.630Z,78304
2017-06-22T13:39:07.500Z,57696
2017-06-22T13:44:03.039Z,44672
2017-06-22T13:48:58.875Z,49696
2017-06-22T13:53:54.985Z,59104
2017-06-22T13:58:51.764Z,25856
2017-06-22T14:03:48.259Z,9208
2017-06-22T14:08:44.137Z,8348
2017-06-22T14:13:39.345Z,7828
2017-06-22T14:18:34.961Z,7332
2017-06-22T14:23:30.939Z,8336
2017-06-22T14:28:26.665Z,7964
2017-06-22T14:33:22.626Z,8684
2017-06-22T14:38:18.681Z,8524
2017-06-22T14:43:16.057Z,8108
2017-06-22T14:48:13.025Z,9656
2017-06-22T14:53:09.687Z,8580
2017-06-22T14:58:05.393Z,7384
2017-06-22T15:03:01.427Z,7464
2017-06-22T15:07:57.585Z,7932
2017-06-22T15:12:53.431Z,6404
2017-06-22T15:17:50.602Z,4968
2017-06-22T15:22:46.412Z,6048
2017-06-22T15:27:42.710Z,7432
2017-06-22T15:32:38.861Z,5812
2017-06-22T15:37:35.769Z,5120
2017-06-22T15:42:31.755Z,4864
2017-06-22T15:47:27.754Z,4108
2017-06-22T15:52:24.616Z,4608
2017-06-22T15:57:20.099Z,5328
2017-06-22T16:02:17.277Z,6972
2017-06-22T16:07:13.061Z,7220
2017-06-22T16:12:09.492Z,5808
2017-06-22T16:17:07.224Z,4472
2017-06-22T16:22:02.455Z,3808
2017-06-22T16:26:58.401Z,5384
2017-06-22T16:31:54.635Z,4808
2017-06-22T16:36:50.558Z,5180
2017-06-22T16:41:47.722Z,4656
2017-06-22T16:46:44.226Z,3868
2017-06-22T16:51:41.960Z,4204
2017-06-22T16:56:38.114Z,3864
2017-06-22T17:01:34.123Z,3616
2017-06-22T17:06:31.030Z,1932
2017-06-22T17:11:27.527Z,2296
2017-06-22T17:16:23.254Z,2708
2017-06-22T17:21:19.613Z,4728
2017-06-22T17:26:16.679Z,3616
2017-06-22T17:31:12.351Z,5084
2017-06-22T17:36:08.855Z,4280
2017-06-22T17:41:04.609Z,2308
2017-06-22T17:46:00.442Z,2704
2017-06-22T17:50:56.486Z,1240
2017-06-22T17:55:52.357Z,2016
2017-06-22T18:00:48.339Z,2084
2017-06-22T18:05:44.359Z,2172
2017-06-22T18:10:42.186Z,1676
2017-06-22T18:15:38.814Z,844
2017-06-22T18:20:34.390Z,428
2017-06-22T18:25:31.220Z,1288
2017-06-22T18:30:26.979Z,2884
2017-06-22T18:35:22.976Z,1448
2017-06-22T18:40:18.722Z,844
2017-06-22T18:45:14.157Z,1616
2017-06-22T18:50:09.794Z,1448
2017-06-22T18:55:06.605Z,792
2017-06-22T19:00:02.253Z,908
2017-06-22T19:04:59.336Z,820
2017-06-22T19:09:55.848Z,988
2017-06-22T19:14:51.336Z,700
2017-06-22T19:19:47.622Z,644
2017-06-22T19:24:43.286Z,544
2017-06-22T19:29:38.904Z,460
2017-06-22T19:34:34.657Z,444
2017-06-22T19:39:31.821Z,316
2017-06-22T19:44:27.310Z,152
2017-06-22T19:49:23.109Z,92
2017-06-22T19:54:19.085Z,88
2017-06-22T19:59:16.631Z,72
2017-06-22T20:04:12.082Z,44
2017-06-22T20:09:07.960Z,28
2017-06-22T20:14:04.689Z,16
2017-06-22T20:19:00.799Z,8
2017-06-22T20:23:56.735Z,8
2017-06-22T20:28:52.468Z,0
2017-06-22T20:33:48.284Z,0
2017-06-22T20:38:44.379Z,0
2017-06-22T20:43:40.302Z,0
2017-06-22T20:48:36.045Z,0
2017-06-22T20:53:32.357Z,0
2017-06-22T20:58:29.272Z,0
2017-06-22T21:03:24.714Z,0
2017-06-22T21:08:20.672Z,0
2017-06-22T21:13:17.601Z,0
2017-06-22T21:18:13.599Z,0
2017-06-22T21:23:09.863Z,0
2017-06-22T21:28:05.844Z,0
2017-06-22T21:33:02.078Z,0
2017-06-22T21:37:57.968Z,0
2017-06-22T21:42:54.199Z,0
2017-06-22T21:47:50.184Z,0
2017-06-22T21:52:47.003Z,0
2017-06-22T21:57:43.203Z,0
2017-06-22T22:02:39.171Z,0
2017-06-22T22:07:35.328Z,0
2017-06-22T22:12:31.206Z,0
2017-06-22T22:17:27.364Z,0
2017-06-22T22:22:23.554Z,0
2017-06-22T22:27:20.387Z,0
2017-06-22T22:32:16.438Z,0
2017-06-22T22:37:12.302Z,0
2017-06-22T22:42:08.621Z,0
2017-06-22T22:47:04.409Z,0
2017-06-22T22:52:00.237Z,0
2017-06-22T22:56:56.096Z,0
2017-06-22T23:01:52.299Z,0
2017-06-22T23:06:49.284Z,0
2017-06-22T23:11:45.994Z,0
2017-06-22T23:16:41.631Z,0
2017-06-22T23:21:37.512Z,0
2017-06-22T23:26:34.400Z,0
2017-06-22T23:31:30.283Z,0
2017-06-22T23:36:26.742Z,0
2017-06-22T23:41:22.853Z,0
2017-06-22T23:46:18.803Z,0
2017-06-22T23:51:15.872Z,0
2017-06-22T23:56:12.357Z,0
